Map

Track Data

SID SEASON NUMBER BASIN SUBBASIN NAME ISO_TIME NATURE LAT LON WMO_WIND WMO_PRES WMO_AGENCY TRACK_TYPE DIST2LAND LANDFALL IFLAG USA_AGENCY USA_ATCF_ID USA_LAT USA_LON USA_RECORD USA_STATUS USA_WIND USA_PRES USA_SSHS USA_R34_NE USA_R34_SE USA_R34_SW USA_R34_NW USA_R50_NE USA_R50_SE USA_R50_SW USA_R50_NW USA_R64_NE USA_R64_SE USA_R64_SW USA_R64_NW USA_POCI USA_ROCI USA_RMW USA_EYE TOKYO_LAT TOKYO_LON TOKYO_GRADE TOKYO_WIND TOKYO_PRES TOKYO_R50_DIR TOKYO_R50_LONG TOKYO_R50_SHORT TOKYO_R30_DIR TOKYO_R30_LONG TOKYO_R30_SHORT TOKYO_LAND CMA_LAT CMA_LON CMA_CAT CMA_WIND CMA_PRES HKO_LAT HKO_LON HKO_CAT HKO_WIND HKO_PRES NEWDELHI_LAT NEWDELHI_LON NEWDELHI_GRADE NEWDELHI_WIND NEWDELHI_PRES NEWDELHI_CI NEWDELHI_DP NEWDELHI_POCI REUNION_LAT REUNION_LON REUNION_TYPE REUNION_WIND REUNION_PRES REUNION_TNUM REUNION_CI REUNION_RMW REUNION_R34_NE REUNION_R34_SE REUNION_R34_SW REUNION_R34_NW REUNION_R50_NE REUNION_R50_SE REUNION_R50_SW REUNION_R50_NW REUNION_R64_NE REUNION_R64_SE REUNION_R64_SW REUNION_R64_NW BOM_LAT BOM_LON BOM_TYPE BOM_WIND BOM_PRES BOM_TNUM BOM_CI BOM_RMW BOM_R34_NE BOM_R34_SE BOM_R34_SW BOM_R34_NW BOM_R50_NE BOM_R50_SE BOM_R50_SW BOM_R50_NW BOM_R64_NE BOM_R64_SE BOM_R64_SW BOM_R64_NW BOM_ROCI BOM_POCI BOM_EYE BOM_POS_METHOD BOM_PRES_METHOD NADI_LAT NADI_LON NADI_CAT NADI_WIND NADI_PRES WELLINGTON_LAT WELLINGTON_LON WELLINGTON_WIND WELLINGTON_PRES DS824_LAT DS824_LON DS824_STAGE DS824_WIND DS824_PRES TD9636_LAT TD9636_LON TD9636_STAGE TD9636_WIND TD9636_PRES TD9635_LAT TD9635_LON TD9635_WIND TD9635_PRES TD9635_ROCI NEUMANN_LAT NEUMANN_LON NEUMANN_CLASS NEUMANN_WIND NEUMANN_PRES MLC_LAT MLC_LON MLC_CLASS MLC_WIND MLC_PRES USA_GUST BOM_GUST BOM_GUST_PER REUNION_GUST REUNION_GUST_PER USA_SEAHGT USA_SEARAD_NE USA_SEARAD_SE USA_SEARAD_SW USA_SEARAD_NW STORM_SPEED STORM_DIR
1892011S11057 1892 4 SI MM NOT_NAMED 1892-01-11 06:00:00 NR -10.8500 56.6000 reunion main 769 745 _____O____O___ -1 -10.8000 57.0000 99 9.90000 -10.9000 56.2000 7 4 246
1892011S11057 1892 4 SI MM NOT_NAMED 1892-01-11 09:00:00 NR -10.9302 56.4189 main 745 731 _____P____P___ -1 -10.8477 56.8610 99 -11.0127 55.9768 7 4 246
1892011S11057 1892 4 SI MM NOT_NAMED 1892-01-11 12:00:00 NR -11.0079 56.2425 main 721 707 _____P____P___ -1 -10.8956 56.7222 99 -11.1202 55.7628 7 4 246
1892011S11057 1892 4 SI MM NOT_NAMED 1892-01-11 15:00:00 NR -11.0807 56.0755 main 707 686 _____P____P___ -1 -10.9439 56.5836 99 -11.2176 55.5674 7 3 246
1892011S11057 1892 4 SI MM NOT_NAMED 1892-01-11 18:00:00 NR -11.1464 55.9227 main 686 672 _____P____O___ -1 -10.9928 56.4454 99 -11.3000 55.4000 7 3 246
1892011S11057 1892 4 SI MM NOT_NAMED 1892-01-11 21:00:00 NR -11.2042 55.7867 main 672 658 _____P____P___ -1 -11.0427 56.3078 99 -11.3658 55.2655 7 3 246
1892011S11057 1892 4 SI MM NOT_NAMED 1892-01-12 00:00:00 NR -11.2605 55.6604 main 658 638 _____P____P___ -1 -11.0936 56.1710 99 -11.4273 55.1498 7 3 244
1892011S11057 1892 4 SI MM NOT_NAMED 1892-01-12 03:00:00 NR -11.3231 55.5346 main 638 624 _____P____P___ -1 -11.1460 56.0350 99 -11.5002 55.0342 7 3 241
1892011S11057 1892 4 SI MM NOT_NAMED 1892-01-12 06:00:00 NR -11.4000 55.4000 reunion main 624 610 _____O____O___ -1 -11.2000 55.9000 99 9.90000 -11.6000 54.9000 7 3 238
1892011S11057 1892 4 SI MM NOT_NAMED 1892-01-12 09:00:00 NR -11.4972 55.2457 main 600 586 _____P____P___ -1 -11.2562 55.7659 99 -11.7381 54.7256 7 4 236
1892011S11057 1892 4 SI MM NOT_NAMED 1892-01-12 12:00:00 NR -11.6108 55.0805 main 586 562 _____P____P___ -1 -11.3166 55.6310 99 -11.9050 54.5299 7 4 234
1892011S11057 1892 4 SI MM NOT_NAMED 1892-01-12 15:00:00 NR -11.7390 54.9065 main 562 535 _____P____P___ -1 -11.3837 55.4936 99 -12.0944 54.3193 7 4 232
1892011S11057 1892 4 SI MM NOT_NAMED 1892-01-12 18:00:00 NR -11.8798 54.7258 main 535 512 _____P____O___ -1 -11.4596 55.3516 99 -12.3000 54.1000 7 5 231
1892011S11057 1892 4 SI MM NOT_NAMED 1892-01-12 21:00:00 NR -12.0308 54.5366 main 512 495 _____P____P___ -1 -11.5469 55.2032 99 -12.5147 53.8701 7 5 230
1892011S11057 1892 4 SI MM NOT_NAMED 1892-01-13 00:00:00 NR -12.1952 54.3408 main 485 469 _____P____P___ -1 -11.6478 55.0464 99 -12.7426 53.6351 7 5 229
1892011S11057 1892 4 SI MM NOT_NAMED 1892-01-13 03:00:00 NR -12.3694 54.1435 main 458 445 _____P____P___ -1 -11.7647 54.8794 99 -12.9741 53.4076 7 5 227
1892011S11057 1892 4 SI MM NOT_NAMED 1892-01-13 06:00:00 NR -12.5500 53.9500 reunion main 445 419 _____O____O___ -1 -11.9000 54.7000 99 9.90000 -13.2000 53.2000 7 5 226
1892011S11057 1892 4 SI MM NOT_NAMED 1892-01-13 09:00:00 NR -12.7318 53.7561 main 419 392 _____P____P___ -1 -12.0565 54.4879 99 -13.4071 53.0242 7 5 225
1892011S11057 1892 4 SI MM NOT_NAMED 1892-01-13 12:00:00 NR -12.9195 53.5655 main 392 365 _____P____P___ -1 -12.2317 54.2612 99 -13.6074 52.8698 7 5 224
1892011S11057 1892 4 SI MM NOT_NAMED 1892-01-13 15:00:00 NR -13.1132 53.3780 main 365 339 _____P____P___ -1 -12.4225 54.0254 99 -13.8040 52.7305 7 5 223
1892011S11057 1892 4 SI MM NOT_NAMED 1892-01-13 18:00:00 NR -13.3128 53.1929 main 339 315 _____P____O___ -1 -12.6257 53.7859 99 -14.0000 52.6000 7 5 223
1892011S11057 1892 4 SI MM NOT_NAMED 1892-01-13 21:00:00 NR -13.4967 53.0138 main 315 302 _____P____P___ -1 -12.8381 53.5480 99 -14.1552 52.4796 7 5 222
1892011S11057 1892 4 SI MM NOT_NAMED 1892-01-14 00:00:00 NR -13.6871 52.8409 main 291 278 _____P____P___ -1 -13.0567 53.3174 99 -14.3174 52.3643 7 5 220
1892011S11057 1892 4 SI MM NOT_NAMED 1892-01-14 03:00:00 NR -13.8996 52.6708 main 278 247 _____P____P___ -1 -13.2784 53.0996 99 -14.5209 52.2419 7 6 216
1892011S11057 1892 4 SI MM NOT_NAMED 1892-01-14 06:00:00 NR -14.1500 52.5000 reunion main 247 213 _____O____O___ -1 -13.5000 52.9000 99 9.90000 -14.8000 52.1000 7 6 213
1892011S11057 1892 4 SI MM NOT_NAMED 1892-01-14 09:00:00 NR -14.4208 52.3232 main 213 191 _____P____P___ -1 -13.6617 52.7407 99 -15.1799 51.9057 7 7 211
1892011S11057 1892 4 SI MM NOT_NAMED 1892-01-14 12:00:00 NR -14.7289 52.1459 main 180 162 _____P____P___ -1 -13.8200 52.5988 99 -15.6378 51.6930 7 7 207
1892011S11057 1892 4 SI MM NOT_NAMED 1892-01-14 15:00:00 NR -15.0678 51.9772 main 161 139 _____P____P___ -1 -13.9839 52.4706 99 -16.1518 51.4838 7 8 204
1892011S11057 1892 4 SI MM NOT_NAMED 1892-01-14 18:00:00 NR -15.4311 51.8261 main 139 132 _____P____O___ -1 -14.1622 52.3523 99 -16.7000 51.3000 7 8 200
1892011S11057 1892 4 SI MM NOT_NAMED 1892-01-14 21:00:00 NR -15.8173 51.6955 main 136 135 _____P____P___ -1 -14.3640 52.2399 99 -17.2705 51.1510 7 8 196
1892011S11057 1892 4 SI MM NOT_NAMED 1892-01-15 00:00:00 NR -16.2316 51.5812 main 144 144 _____P____P___ -1 -14.5983 52.1297 99 -17.8649 51.0327 7 9 194
1892011S11057 1892 4 SI MM NOT_NAMED 1892-01-15 03:00:00 NR -16.6629 51.4829 main 159 156 _____P____P___ -1 -14.8739 52.0177 99 -18.4518 50.9480 7 9 191
1892011S11057 1892 4 SI MM NOT_NAMED 1892-01-15 06:00:00 NR -17.1000 51.4000 reunion main 173 169 _____O____O___ -1 -15.2000 51.9000 99 9.90000 -19.0000 50.9000 7 9 191
1892011S11057 1892 4 SI MM NOT_NAMED 1892-01-15 09:00:00 NR -17.5433 51.3093 main 177 177 _____P____P___ -1 -15.6145 51.7340 99 -19.4721 50.8846 7 9 190
1892011S11057 1892 4 SI MM NOT_NAMED 1892-01-15 12:00:00 NR -17.9919 51.2325 main 183 183 _____P____P___ -1 -16.0814 51.5605 99 -19.9024 50.9045 7 9 189
1892011S11057 1892 4 SI MM NOT_NAMED 1892-01-15 15:00:00 NR -18.4475 51.1663 main 191 184 _____P____P___ -1 -16.5884 51.3853 99 -20.3065 50.9472 7 9 187
1892011S11057 1892 4 SI MM NOT_NAMED 1892-01-15 18:00:00 NR -18.9117 51.1072 main 195 195 _____P____O___ -1 -17.1234 51.2145 99 -20.7000 51.0000 7 10 187
1892011S11057 1892 4 SI MM NOT_NAMED 1892-01-15 21:00:00 NR -19.3947 51.0445 main 204 204 _____P____P___ -1 -17.6742 51.0542 99 -21.1153 51.0348 7 10 186
1892011S11057 1892 4 SI MM NOT_NAMED 1892-01-16 00:00:00 NR -19.8755 50.9942 main 223 223 _____P____P___ -1 -18.2286 50.9108 99 -21.5224 51.0777 7 10 185
1892011S11057 1892 4 SI MM NOT_NAMED 1892-01-16 03:00:00 NR -20.3465 50.9611 main 232 232 _____P____P___ -1 -18.7746 50.7905 99 -21.9184 51.1317 7 9 182
1892011S11057 1892 4 SI MM NOT_NAMED 1892-01-16 06:00:00 NR -20.8000 50.9500 reunion main 246 236 _____O____O___ -1 -19.3000 50.7000 99 9.90000 -22.3000 51.2000 7 9 178
1892011S11057 1892 4 SI MM NOT_NAMED 1892-01-16 09:00:00 NR -21.2264 50.9615 main 264 264 _____P____P___ -1 -19.7762 50.6455 99 -22.6765 51.2776 7 8 178
1892011S11057 1892 4 SI MM NOT_NAMED 1892-01-16 12:00:00 NR -21.6388 50.9947 main 277 277 _____P____P___ -1 -20.2401 50.6192 99 -23.0374 51.3701 7 8 174
1892011S11057 1892 4 SI MM NOT_NAMED 1892-01-16 15:00:00 NR -22.0351 51.0480 main 286 286 _____P____P___ -1 -20.6906 50.6185 99 -23.3796 51.4776 7 8 171
1892011S11057 1892 4 SI MM NOT_NAMED 1892-01-16 18:00:00 NR -22.4132 51.1203 main 306 306 _____P____O___ -1 -21.1265 50.6406 99 -23.7000 51.6000 7 8 169
1892011S11057 1892 4 SI MM NOT_NAMED 1892-01-16 21:00:00 NR -22.7718 51.2096 main 328 328 _____P____P___ -1 -21.5466 50.6826 99 -23.9970 51.7366 7 5 169
1892011S11057 1892 4 SI MM NOT_NAMED 1892-01-17 00:00:00 NR -22.9463 51.2315 main 332 332 _____P____P___ -1 -21.9497 50.7418 99 -24.2752 51.8845 7 3 177
1892011S11057 1892 4 SI MM NOT_NAMED 1892-01-17 03:00:00 NR -23.0700 51.2236 main 340 340 _____P____P___ -1 -22.3346 50.8153 99 -24.5408 52.0402 7 2 201
1892011S11057 1892 4 SI MM NOT_NAMED 1892-01-17 06:00:00 NR -23.1200 51.1600 reunion main 340 322 _____O____O___ -1 -22.7000 50.9000 99 9.90000 -24.8000 52.2000 7 2 272
1892011S11057 1892 4 SI MM NOT_NAMED 1892-01-17 09:00:00 NR -23.0636 50.9758 main 322 322 _____P________ -1 -23.0636 50.9758 99 7 3 197
1892011S11057 1892 4 SI MM NOT_NAMED 1892-01-17 12:00:00 NR -23.4082 51.0660 main 341 341 _____P________ -1 -23.4082 51.0660 99 7 7 165
1892011S11057 1892 4 SI MM NOT_NAMED 1892-01-17 15:00:00 NR -23.7343 51.1686 main 358 358 _____P________ -1 -23.7343 51.1686 99 7 7 163
1892011S11057 1892 4 SI MM NOT_NAMED 1892-01-17 18:00:00 NR -24.0422 51.2818 main 372 372 _____P________ -1 -24.0422 51.2818 99 6 161
1892011S11057 1892 4 SI MM NOT_NAMED 1892-01-17 21:00:00 NR -24.3324 51.4035 main 389 389 _____P________ -1 -24.3324 51.4035 99 6 158
1892011S11057 1892 4 SI MM NOT_NAMED 1892-01-18 00:00:00 NR -24.6051 51.5318 main 408 408 _____P________ -1 -24.6051 51.5318 99 6 156
1892011S11057 1892 4 SI MM NOT_NAMED 1892-01-18 03:00:00 NR -24.8609 51.6646 main 436 436 _____P________ -1 -24.8609 51.6646 99 6 154
1892011S11057 1892 4 SI MM NOT_NAMED 1892-01-18 06:00:00 NR -25.1000 51.8000 reunion main 451 451 _____O________ -1 -25.1000 51.8000 99 9.90000 5 152
1892011S11057 1892 4 SI MM NOT_NAMED 1892-01-18 09:00:00 NR -25.3232 51.9361 main 467 467 _____P________ -1 -25.3232 51.9361 99 5 150
1892011S11057 1892 4 SI MM NOT_NAMED 1892-01-18 12:00:00 NR -25.5321 52.0727 main 493 493 _____P________ -1 -25.5321 52.0727 99 5 149
1892011S11057 1892 4 SI MM NOT_NAMED 1892-01-18 15:00:00 NR -25.7289 52.2097 main 510 510 _____P________ -1 -25.7289 52.2097 99 5 147
1892011S11057 1892 4 SI MM NOT_NAMED 1892-01-18 18:00:00 NR -25.9154 52.3470 main 526 526 _____P________ -1 -25.9154 52.3470 99 4 146
1892011S11057 1892 4 SI MM NOT_NAMED 1892-01-18 21:00:00 NR -26.0938 52.4847 main 552 552 _____P________ -1 -26.0938 52.4847 99 4 145
1892011S11057 1892 4 SI MM NOT_NAMED 1892-01-19 00:00:00 NR -26.2660 52.6228 main 568 568 _____P________ -1 -26.2660 52.6228 99 4 144
1892011S11057 1892 4 SI MM NOT_NAMED 1892-01-19 03:00:00 NR -26.4341 52.7612 main 591 591 _____P________ -1 -26.4341 52.7612 99 4 144
1892011S11057 1892 4 SI MM NOT_NAMED 1892-01-19 06:00:00 NR -26.6000 52.9000 reunion main 607 _____O________ -1 -26.6000 52.9000 99 9.90000 4 142

About IBTrACS Database

This database is a web-friendly format of International Best Track Archive for Climate Stewardship (IBTrACS), a global best track data archive curated by NOAA dating back to 1842.

Updated: 2021-12-06